KMDW/MDW METAR and TAF weather

Enter ICAO airport designator
Station Type Date Time Source
KMDW METAR 2022/08/12 13:53 UTC NOAA

KMDW 121353Z 16007KT 10SM FEW035 FEW200 BKN250 23/13 A3023 RMK AO2 SLP230 T02280128 $


Station Type Date Time Source
KMDW Decoded METAR 2022/08/12 13:53 UTC NOAA

CHICAGO MIDWAY AIRPORT, IL, United States (KMDW) 41-47N 087-45W 188M
Aug 12, 2022 - 09:53 AM EDT / 2022.08.12 1353 UTC
Wind: from the SSE (160 degrees) at 8 MPH (7 KT):0
Visibility: 10 mile(s):0
Sky conditions: mostly cloudy
Temperature: 73.0 F (22.8 C)
Dew Point: 55.0 F (12.8 C)
Relative Humidity: 53%
Pressure (altimeter): 30.23 in. Hg (1023 hPa)
ob: KMDW 121353Z 16007KT 10SM FEW035 FEW200 BKN250 23/13 A3023 RMK AO2 SLP230 T02280128
cycle: 14

Station Type Date Time Source
KMDW TAF 2022/08/12 12:22 UTC NOAA

TAF KMDW 121120Z 1212/1318 36005KT P6SM SCT200
FM121400 07008KT P6SM BKN200
FM130600 17006KT P6SM BKN100
FM131500 19012G20KT P6SM BKN100

Example: see airport list